Skip Navigation LinksHome page > Weather > Current weather Skip Navigation Links

Current Weather

Royal Weather Centre, Southampton, United Kingdom

For information only: do not use for flight planning or navigation.
Latest weather
Observation time Tuesday, October 19, 2021 8:50 PM BST
Local time Tuesday, October 19, 2021 11:09 PM BST
Flight conditions Instrument Meteorological Conditions
Winds
Wind direction South-Southwest (210°)
Wind speed 20 mph
Wind gusting to 33 mph
Visibility 1.6 mi.
Present weather light rain
Sky condition
Ceiling 800 ft. broken clouds
Cloud layer broken clouds 800 ft.
Temperature 63°F
Dewpoint 61°F
Altimeter 29.80 in.Hg
Derived measurements
Relative humidity 94%
Density altitude 629 ft.
METAR EGHI 191950Z 21017G29KT 2500 -RA BKN008 17/16 Q1009

Settings

Location code

InnerDrive.Weather 4.0.6770.0 Release CLR 4.0.30319.42000
Copyright ©2018 Inner Drive Technology. All rights reserved. Portions Copyright ©1986-2018 David Braverman.

Find weather

Site navigation


Skip Navigation Links

Place info

Page info

PayPal - The safer, easier way to pay online!

Return home.

Copyright ©2021 Inner Drive Technology. Purveyors of fine, hand-crafted computer software. Page printed 2021-10-19T22:09:40 UTC.